createdAt,value
2022-11-17T00:00:47.232Z,26.80
2022-11-17T00:03:16.244Z,26.80
2022-11-17T00:05:45.704Z,26.90
2022-11-17T00:08:14.282Z,27.00
2022-11-17T00:10:42.559Z,27.00
2022-11-17T00:13:11.696Z,26.90
2022-11-17T00:15:51.225Z,26.70
2022-11-17T00:18:19.457Z,26.60
2022-11-17T00:20:47.841Z,26.50
2022-11-17T00:23:16.110Z,26.40
2022-11-17T00:25:44.230Z,26.30
2022-11-17T00:28:12.341Z,26.30
2022-11-17T00:30:43.684Z,26.40
2022-11-17T00:33:12.179Z,26.60
2022-11-17T00:35:40.356Z,26.70
2022-11-17T00:38:08.503Z,26.50
2022-11-17T00:40:36.722Z,26.30
2022-11-17T00:43:04.944Z,26.10
2022-11-17T00:45:33.764Z,26.00
2022-11-17T00:48:02.075Z,25.90
2022-11-17T00:50:30.229Z,26.00
2022-11-17T00:52:58.381Z,26.10
2022-11-17T00:55:26.676Z,26.40
2022-11-17T00:57:54.839Z,26.50
2022-11-17T01:00:23.884Z,26.40
2022-11-17T01:02:53.339Z,26.20
2022-11-17T01:05:21.539Z,26.20
2022-11-17T01:07:49.604Z,26.10
2022-11-17T01:10:18.140Z,26.10
2022-11-17T01:12:46.360Z,26.10
2022-11-17T01:15:15.497Z,26.00
2022-11-17T01:17:43.562Z,25.90
2022-11-17T01:20:11.956Z,25.90
2022-11-17T01:22:40.211Z,25.70
2022-11-17T01:25:11.410Z,25.60
2022-11-17T01:27:39.976Z,25.60
2022-11-17T01:30:08.784Z,25.60
2022-11-17T01:32:36.991Z,25.70
2022-11-17T01:35:05.419Z,25.70
2022-11-17T01:37:33.887Z,25.60
2022-11-17T01:40:02.098Z,25.60
2022-11-17T01:42:30.342Z,25.60
2022-11-17T01:45:01.343Z,25.70
2022-11-17T01:47:44.891Z,25.70
2022-11-17T01:50:28.915Z,25.50
2022-11-17T01:53:03.597Z,25.50
2022-11-17T01:55:42.142Z,25.40
2022-11-17T01:58:14.874Z,25.40
2022-11-17T02:00:45.309Z,25.30
2022-11-17T02:03:14.624Z,25.40
2022-11-17T02:06:04.511Z,25.40
2022-11-17T02:08:34.270Z,25.60
2022-11-17T02:11:05.217Z,25.60
2022-11-17T02:13:35.975Z,25.50
2022-11-17T02:16:04.524Z,25.40
2022-11-17T02:18:32.836Z,25.30
2022-11-17T02:21:22.415Z,25.30
2022-11-17T02:24:21.390Z,25.30
2022-11-17T02:27:04.021Z,25.20
2022-11-17T02:29:59.479Z,25.30
2022-11-17T02:32:56.506Z,25.50
2022-11-17T02:35:42.351Z,25.50
2022-11-17T02:38:27.634Z,25.30
2022-11-17T02:41:12.058Z,25.20
2022-11-17T02:43:58.806Z,25.20
2022-11-17T02:46:29.913Z,25.30
2022-11-17T02:49:06.116Z,25.30
2022-11-17T02:51:36.862Z,25.20
2022-11-17T02:54:05.977Z,25.20
2022-11-17T02:56:34.127Z,25.30
2022-11-17T02:59:05.483Z,25.50
2022-11-17T03:02:20.850Z,25.30
2022-11-17T03:05:04.139Z,25.20
2022-11-17T03:07:32.465Z,25.20
2022-11-17T03:10:11.807Z,25.20
2022-11-17T03:12:47.536Z,25.20
2022-11-17T03:15:37.323Z,25.20
2022-11-17T03:18:21.612Z,25.30
2022-11-17T03:21:14.324Z,25.40
2022-11-17T03:23:47.020Z,25.30
2022-11-17T03:26:21.712Z,25.30
2022-11-17T03:28:49.971Z,25.30
2022-11-17T03:31:19.686Z,25.30
2022-11-17T03:33:50.443Z,25.30
2022-11-17T03:36:23.344Z,25.30
2022-11-17T03:39:04.289Z,25.30
2022-11-17T03:41:38.762Z,25.30
2022-11-17T03:44:08.254Z,25.50
2022-11-17T03:46:39.388Z,25.50
2022-11-17T03:49:37.217Z,25.30
2022-11-17T03:52:05.653Z,25.10
2022-11-17T03:54:35.733Z,25.10
2022-11-17T03:57:14.917Z,25.10
2022-11-17T03:59:43.001Z,25.10
2022-11-17T04:02:21.948Z,25.10
2022-11-17T04:04:50.152Z,25.00
2022-11-17T04:07:18.360Z,25.10
2022-11-17T04:09:46.556Z,25.30
2022-11-17T04:12:14.728Z,25.30
2022-11-17T04:14:42.857Z,25.20
2022-11-17T04:17:11.161Z,25.00
2022-11-17T04:19:39.676Z,25.00
2022-11-17T04:22:07.795Z,24.90
2022-11-17T04:24:35.904Z,24.90
2022-11-17T04:27:04.009Z,24.80
2022-11-17T04:29:32.211Z,24.80
2022-11-17T04:32:00.393Z,24.80
2022-11-17T04:34:28.523Z,25.00
2022-11-17T04:36:56.660Z,25.00
2022-11-17T04:39:24.847Z,25.00
2022-11-17T04:41:53.085Z,24.80
2022-11-17T04:44:31.966Z,24.80
2022-11-17T04:47:00.274Z,24.80
2022-11-17T04:49:28.315Z,24.70
2022-11-17T04:51:56.569Z,24.70
2022-11-17T04:54:25.535Z,24.70
2022-11-17T04:56:55.116Z,24.60
2022-11-17T04:59:23.816Z,24.70
2022-11-17T05:01:52.191Z,24.80
2022-11-17T05:04:21.805Z,24.80
2022-11-17T05:06:50.050Z,24.70
2022-11-17T05:09:18.418Z,24.60
2022-11-17T05:11:46.449Z,24.50
2022-11-17T05:14:17.120Z,24.50
2022-11-17T05:16:45.651Z,24.60
2022-11-17T05:19:20.342Z,24.50
2022-11-17T05:21:49.143Z,24.50
2022-11-17T05:24:17.767Z,24.70
2022-11-17T05:26:47.434Z,24.80
2022-11-17T05:29:18.616Z,24.80
2022-11-17T05:31:47.566Z,24.70
2022-11-17T05:34:17.454Z,24.70
2022-11-17T05:36:46.192Z,24.60
2022-11-17T05:39:14.441Z,24.50
2022-11-17T05:41:42.556Z,24.50
2022-11-17T05:44:10.710Z,24.50
2022-11-17T05:46:38.906Z,24.50
2022-11-17T05:49:07.224Z,24.50
2022-11-17T05:51:35.486Z,24.60
2022-11-17T05:54:03.742Z,24.80
2022-11-17T05:56:43.805Z,24.60
2022-11-17T05:59:29.371Z,24.50
2022-11-17T06:02:18.917Z,24.50
2022-11-17T06:04:49.149Z,24.50
2022-11-17T06:07:18.028Z,24.40
2022-11-17T06:09:47.225Z,24.40
2022-11-17T06:12:15.536Z,24.30
2022-11-17T06:14:44.078Z,24.30
2022-11-17T06:17:23.839Z,24.30
2022-11-17T06:20:01.004Z,24.50
2022-11-17T06:22:29.668Z,24.70
2022-11-17T06:24:59.100Z,24.50
2022-11-17T06:27:27.964Z,24.40
2022-11-17T06:29:57.114Z,24.40
2022-11-17T06:32:25.534Z,24.30
2022-11-17T06:34:56.191Z,24.30
2022-11-17T06:37:25.304Z,24.30
2022-11-17T06:39:53.736Z,24.40
2022-11-17T06:42:21.921Z,24.40
2022-11-17T06:44:50.061Z,24.50
2022-11-17T06:47:18.373Z,24.70
2022-11-17T06:49:46.714Z,24.60
2022-11-17T06:52:14.865Z,24.60
2022-11-17T06:54:42.912Z,24.50
2022-11-17T06:57:11.166Z,24.60
2022-11-17T06:59:39.368Z,24.70
2022-11-17T07:02:07.778Z,24.80
2022-11-17T07:04:36.092Z,25.00
2022-11-17T07:07:04.371Z,25.00
2022-11-17T07:09:32.724Z,25.10
2022-11-17T07:12:00.923Z,25.40
2022-11-17T07:14:29.106Z,25.80
2022-11-17T07:16:57.345Z,25.80
2022-11-17T07:19:25.703Z,25.80
2022-11-17T07:21:53.913Z,25.60
2022-11-17T07:24:22.346Z,25.60
2022-11-17T07:26:50.521Z,25.60
2022-11-17T07:29:18.947Z,25.50
2022-11-17T07:31:47.178Z,25.50
2022-11-17T07:34:15.331Z,26.10
2022-11-17T07:36:43.690Z,26.90
2022-11-17T07:39:13.318Z,27.20
2022-11-17T07:41:44.319Z,27.60
2022-11-17T07:44:12.517Z,27.50
2022-11-17T07:46:40.764Z,28.90
2022-11-17T07:49:09.097Z,32.30
2022-11-17T07:51:37.318Z,34.50
2022-11-17T07:54:07.887Z,35.90
2022-11-17T07:56:36.093Z,36.30
2022-11-17T07:59:04.316Z,37.20
2022-11-17T08:01:32.631Z,38.10
2022-11-17T08:04:01.923Z,38.30
2022-11-17T08:06:30.189Z,38.40
2022-11-17T08:08:58.451Z,38.30
2022-11-17T08:11:26.891Z,39.30
2022-11-17T08:13:55.046Z,40.00
2022-11-17T08:16:23.296Z,40.50
2022-11-17T08:18:52.717Z,40.50
2022-11-17T08:21:21.133Z,40.10
2022-11-17T08:23:53.420Z,39.90
2022-11-17T08:26:22.776Z,40.40
2022-11-17T08:28:56.693Z,41.80
2022-11-17T08:31:26.635Z,41.00
2022-11-17T08:33:54.864Z,41.90
2022-11-17T08:36:23.269Z,41.40
2022-11-17T08:38:51.603Z,41.10
2022-11-17T08:41:19.872Z,41.70
2022-11-17T08:43:48.269Z,41.40
2022-11-17T08:46:16.486Z,41.00
2022-11-17T08:48:44.853Z,41.20
2022-11-17T08:51:14.624Z,40.70
2022-11-17T08:53:42.880Z,38.60
2022-11-17T08:56:12.745Z,36.40
2022-11-17T08:58:45.485Z,34.40
2022-11-17T09:01:16.322Z,33.60
2022-11-17T09:03:46.246Z,32.90
2022-11-17T09:06:16.370Z,32.60
2022-11-17T09:08:46.644Z,32.00
2022-11-17T09:11:15.857Z,32.10
2022-11-17T09:13:44.548Z,32.30
2022-11-17T09:16:13.593Z,32.50
2022-11-17T09:18:42.351Z,32.50
2022-11-17T09:21:15.470Z,32.80
2022-11-17T09:23:43.865Z,32.20
2022-11-17T09:26:14.527Z,31.70
2022-11-17T09:28:43.985Z,31.40
2022-11-17T09:31:20.317Z,31.60
2022-11-17T09:33:48.723Z,31.70
2022-11-17T09:36:17.410Z,31.90
2022-11-17T09:38:46.099Z,31.60
2022-11-17T09:41:17.083Z,31.20
2022-11-17T09:43:52.851Z,30.90
2022-11-17T09:46:46.608Z,30.50
2022-11-17T09:49:26.722Z,30.50
2022-11-17T09:52:01.028Z,30.60
2022-11-17T09:54:43.991Z,30.60
2022-11-17T09:57:31.475Z,31.00
2022-11-17T10:00:16.811Z,31.10
2022-11-17T10:02:45.842Z,31.30
2022-11-17T10:05:16.779Z,32.00
2022-11-17T10:07:52.928Z,32.30
2022-11-17T10:10:36.803Z,32.50
2022-11-17T10:13:12.870Z,32.50
2022-11-17T10:15:50.259Z,32.50
2022-11-17T10:18:19.052Z,32.40
2022-11-17T10:20:47.294Z,32.20
2022-11-17T10:23:19.313Z,32.00
2022-11-17T10:25:56.376Z,32.20
2022-11-17T10:28:35.344Z,32.50
2022-11-17T10:31:11.368Z,32.20
2022-11-17T10:33:45.297Z,31.90
2022-11-17T10:36:29.725Z,32.10
2022-11-17T10:39:00.015Z,32.20
2022-11-17T10:41:28.198Z,31.60
2022-11-17T10:44:02.551Z,31.60
2022-11-17T10:46:40.565Z,31.60
2022-11-17T10:49:33.788Z,31.60
2022-11-17T10:52:14.315Z,31.70
2022-11-17T10:54:43.509Z,31.60
2022-11-17T10:57:25.088Z,32.00
2022-11-17T10:59:57.170Z,32.30
2022-11-17T11:02:30.232Z,31.80
2022-11-17T11:05:09.279Z,31.40
2022-11-17T11:07:38.190Z,31.30
2022-11-17T11:10:35.379Z,31.50
2022-11-17T11:13:30.960Z,32.10
2022-11-17T11:15:59.335Z,32.00
2022-11-17T11:18:30.516Z,32.20
2022-11-17T11:21:07.708Z,32.10
2022-11-17T11:23:45.827Z,31.50
2022-11-17T11:26:28.649Z,31.10
2022-11-17T11:29:34.215Z,31.00
2022-11-17T11:32:20.784Z,30.90
2022-11-17T11:35:37.694Z,30.90
2022-11-17T11:38:14.771Z,31.60
2022-11-17T11:40:53.095Z,32.00
2022-11-17T11:43:38.997Z,32.20
2022-11-17T11:46:58.433Z,32.20
2022-11-17T11:49:39.175Z,32.30
2022-11-17T11:52:15.079Z,31.90
2022-11-17T11:54:52.943Z,32.20
2022-11-17T11:57:27.408Z,32.10
2022-11-17T12:00:08.318Z,32.00
2022-11-17T12:02:48.550Z,32.30
2022-11-17T12:05:47.814Z,32.30
2022-11-17T12:08:20.844Z,31.60
2022-11-17T12:10:52.004Z,32.10
2022-11-17T12:13:23.301Z,32.40
2022-11-17T12:15:51.822Z,32.50
2022-11-17T12:18:19.802Z,32.40
2022-11-17T12:20:58.060Z,31.80
2022-11-17T12:23:58.094Z,32.10
2022-11-17T12:26:29.687Z,32.20
2022-11-17T12:29:15.902Z,32.30
2022-11-17T12:31:51.887Z,32.10
2022-11-17T12:34:23.177Z,32.30
2022-11-17T12:37:13.042Z,32.60
2022-11-17T12:40:06.508Z,32.30
2022-11-17T12:42:36.115Z,32.00
2022-11-17T12:45:08.204Z,32.20
2022-11-17T12:47:44.212Z,32.10
2022-11-17T12:50:19.125Z,31.70
2022-11-17T12:53:14.910Z,31.50
2022-11-17T12:55:51.259Z,31.30
2022-11-17T12:58:25.702Z,30.80
2022-11-17T13:01:09.315Z,30.70
2022-11-17T13:03:40.433Z,30.90
2022-11-17T13:06:34.331Z,31.50
2022-11-17T13:09:01.867Z,31.40
2022-11-17T13:11:30.346Z,31.60
2022-11-17T13:14:13.387Z,31.20
2022-11-17T13:16:52.002Z,31.70
2022-11-17T13:19:36.569Z,31.90
2022-11-17T13:22:17.466Z,31.90
2022-11-17T13:24:50.492Z,31.30
2022-11-17T13:27:30.306Z,31.20
2022-11-17T13:30:14.835Z,31.20
2022-11-17T13:32:43.778Z,31.10
2022-11-17T13:35:27.104Z,31.00
2022-11-17T13:38:20.349Z,31.60
2022-11-17T13:40:51.164Z,31.70
2022-11-17T13:43:22.240Z,31.60
2022-11-17T13:45:51.656Z,31.60
2022-11-17T13:48:32.647Z,31.20
2022-11-17T13:51:20.472Z,31.20
2022-11-17T13:53:56.552Z,31.10
2022-11-17T13:56:34.850Z,31.10
2022-11-17T13:59:27.631Z,31.50
2022-11-17T14:02:17.385Z,31.40
2022-11-17T14:05:12.971Z,31.10
2022-11-17T14:07:43.061Z,31.50
2022-11-17T14:10:23.222Z,31.50
2022-11-17T14:13:01.219Z,31.20
2022-11-17T14:15:38.319Z,31.30
2022-11-17T14:18:27.686Z,31.50
2022-11-17T14:21:16.540Z,31.50
2022-11-17T14:23:45.723Z,31.10
2022-11-17T14:26:25.091Z,31.10
2022-11-17T14:28:53.622Z,31.30
2022-11-17T14:31:22.072Z,31.20
2022-11-17T14:33:53.257Z,30.90
2022-11-17T14:36:21.639Z,31.30
2022-11-17T14:38:50.017Z,31.60
2022-11-17T14:41:19.420Z,31.50
2022-11-17T14:43:48.072Z,31.70
2022-11-17T14:46:25.383Z,31.70
2022-11-17T14:48:54.756Z,31.70
2022-11-17T14:51:23.274Z,31.40
2022-11-17T14:53:51.605Z,30.90
2022-11-17T14:56:22.421Z,30.70
2022-11-17T14:58:58.896Z,30.30
2022-11-17T15:01:32.941Z,30.70
2022-11-17T15:04:15.711Z,31.20
2022-11-17T15:06:51.470Z,31.10
2022-11-17T15:09:19.835Z,30.90
2022-11-17T15:11:48.024Z,31.20
2022-11-17T15:14:16.611Z,31.50
2022-11-17T15:16:45.491Z,31.30
2022-11-17T15:19:13.725Z,31.50
2022-11-17T15:21:41.840Z,31.50
2022-11-17T15:24:10.316Z,31.30
2022-11-17T15:26:38.838Z,31.20
2022-11-17T15:29:14.412Z,31.40
2022-11-17T15:31:43.665Z,31.80
2022-11-17T15:34:15.663Z,31.60
2022-11-17T15:36:48.584Z,31.40
2022-11-17T15:39:18.016Z,31.40
2022-11-17T15:41:46.456Z,31.60
2022-11-17T15:44:14.892Z,31.70
2022-11-17T15:46:47.333Z,31.30
2022-11-17T15:49:16.646Z,31.10
2022-11-17T15:51:44.991Z,31.30
2022-11-17T15:54:18.470Z,31.10
2022-11-17T15:56:48.659Z,31.10
2022-11-17T15:59:17.084Z,31.20
2022-11-17T16:01:45.848Z,31.30
2022-11-17T16:04:15.747Z,30.80
2022-11-17T16:06:45.962Z,30.90
2022-11-17T16:09:15.738Z,31.00
2022-11-17T16:11:44.365Z,30.70
2022-11-17T16:14:12.857Z,30.90
2022-11-17T16:16:41.303Z,30.80
2022-11-17T16:19:09.718Z,30.90
2022-11-17T16:21:37.898Z,30.70
2022-11-17T16:24:06.260Z,30.60
2022-11-17T16:26:34.604Z,30.70
2022-11-17T16:29:06.311Z,30.90
2022-11-17T16:31:36.991Z,30.80
2022-11-17T16:34:16.056Z,30.80
2022-11-17T16:36:45.346Z,30.60
2022-11-17T16:39:16.272Z,30.60
2022-11-17T16:41:45.650Z,30.40
2022-11-17T16:44:16.717Z,30.40
2022-11-17T16:46:46.871Z,30.30
2022-11-17T16:49:17.959Z,30.40
2022-11-17T16:51:51.155Z,30.30
2022-11-17T16:54:20.266Z,30.00
2022-11-17T16:56:48.751Z,30.20
2022-11-17T16:59:17.269Z,30.40
2022-11-17T17:01:45.673Z,30.50
2022-11-17T17:04:13.953Z,30.30
2022-11-17T17:06:44.152Z,30.50
2022-11-17T17:09:14.568Z,30.60
2022-11-17T17:11:43.511Z,30.60
2022-11-17T17:14:14.413Z,30.60
2022-11-17T17:16:43.079Z,30.50
2022-11-17T17:19:14.742Z,30.60
2022-11-17T17:21:44.564Z,30.40
2022-11-17T17:24:12.838Z,30.10
2022-11-17T17:26:41.063Z,29.70
2022-11-17T17:29:10.310Z,29.70
2022-11-17T17:31:42.501Z,29.80
2022-11-17T17:34:12.801Z,29.70
2022-11-17T17:36:41.017Z,29.80
2022-11-17T17:39:09.421Z,29.80
2022-11-17T17:41:40.660Z,29.80
2022-11-17T17:44:13.792Z,29.80
2022-11-17T17:46:42.108Z,29.80
2022-11-17T17:49:10.695Z,29.40
2022-11-17T17:51:43.619Z,29.30
2022-11-17T17:54:17.581Z,29.50
2022-11-17T17:56:46.670Z,29.30
2022-11-17T17:59:15.480Z,29.10
2022-11-17T18:01:44.210Z,29.20
2022-11-17T18:04:15.844Z,29.20
2022-11-17T18:06:45.717Z,29.20
2022-11-17T18:09:14.360Z,29.30
2022-11-17T18:11:43.046Z,29.20
2022-11-17T18:14:11.301Z,28.90
2022-11-17T18:16:39.552Z,29.00
2022-11-17T18:19:09.683Z,29.00
2022-11-17T18:21:37.888Z,28.90
2022-11-17T18:24:06.405Z,28.80
2022-11-17T18:26:36.117Z,28.90
2022-11-17T18:29:07.240Z,29.00
2022-11-17T18:31:37.132Z,29.10
2022-11-17T18:34:14.697Z,29.00
2022-11-17T18:36:43.076Z,28.70
2022-11-17T18:39:11.522Z,28.80
2022-11-17T18:41:39.925Z,28.90
2022-11-17T18:44:08.411Z,28.80
2022-11-17T18:46:36.627Z,28.70
2022-11-17T18:49:04.842Z,28.80
2022-11-17T18:51:33.129Z,28.90
2022-11-17T18:54:02.520Z,28.80
2022-11-17T18:56:36.572Z,28.90
2022-11-17T18:59:06.386Z,28.60
2022-11-17T19:01:34.665Z,28.70
2022-11-17T19:04:02.768Z,28.70
2022-11-17T19:06:31.676Z,28.70
2022-11-17T19:09:00.668Z,28.50
2022-11-17T19:11:30.044Z,28.60
2022-11-17T19:14:00.382Z,28.70
2022-11-17T19:16:29.233Z,28.80
2022-11-17T19:18:58.066Z,28.70
2022-11-17T19:21:31.958Z,28.50
2022-11-17T19:24:03.699Z,28.70
2022-11-17T19:26:34.154Z,28.70
2022-11-17T19:29:04.706Z,28.50
2022-11-17T19:31:33.509Z,28.50
2022-11-17T19:34:01.559Z,28.70
2022-11-17T19:36:31.482Z,28.70
2022-11-17T19:39:01.545Z,28.70
2022-11-17T19:41:34.908Z,28.50
2022-11-17T19:44:05.019Z,28.40
2022-11-17T19:46:33.754Z,28.60
2022-11-17T19:49:02.197Z,28.60
2022-11-17T19:51:32.712Z,28.40
2022-11-17T19:54:06.689Z,28.50
2022-11-17T19:56:35.518Z,28.50
2022-11-17T19:59:04.248Z,28.50
2022-11-17T20:01:33.489Z,28.60
2022-11-17T20:04:02.770Z,28.30
2022-11-17T20:06:35.659Z,28.30
2022-11-17T20:09:08.470Z,28.50
2022-11-17T20:11:37.411Z,28.30
2022-11-17T20:14:05.831Z,28.20
2022-11-17T20:16:34.457Z,28.30
2022-11-17T20:19:03.647Z,28.40
2022-11-17T20:21:32.318Z,28.20
2022-11-17T20:24:00.494Z,28.20
2022-11-17T20:26:30.759Z,28.00
2022-11-17T20:29:00.245Z,28.20
2022-11-17T20:31:32.454Z,28.20
2022-11-17T20:34:02.431Z,28.10
2022-11-17T20:36:32.581Z,28.10
2022-11-17T20:39:03.501Z,28.20
2022-11-17T20:41:32.001Z,28.30
2022-11-17T20:44:01.665Z,28.20
2022-11-17T20:46:30.514Z,28.00
2022-11-17T20:48:58.748Z,27.90
2022-11-17T20:51:27.059Z,28.10
2022-11-17T20:53:55.375Z,28.10
2022-11-17T20:56:23.682Z,28.00
2022-11-17T20:58:51.922Z,28.00
2022-11-17T21:01:22.268Z,28.00
2022-11-17T21:03:51.053Z,28.00
2022-11-17T21:06:20.090Z,28.00
2022-11-17T21:08:48.442Z,27.90
2022-11-17T21:11:19.376Z,27.90
2022-11-17T21:13:47.826Z,27.90
2022-11-17T21:16:16.525Z,27.90
2022-11-17T21:18:49.372Z,27.80
2022-11-17T21:21:17.575Z,27.80
2022-11-17T21:23:45.991Z,27.80
2022-11-17T21:26:16.682Z,27.90
2022-11-17T21:28:45.408Z,27.80
2022-11-17T21:31:15.768Z,27.70
2022-11-17T21:33:45.121Z,27.60
2022-11-17T21:36:15.659Z,27.50
2022-11-17T21:38:45.208Z,27.30
2022-11-17T21:41:16.107Z,27.20
2022-11-17T21:43:46.330Z,27.10
2022-11-17T21:46:19.912Z,27.20
2022-11-17T21:48:48.424Z,27.30
2022-11-17T21:51:19.427Z,27.30
2022-11-17T21:53:48.452Z,27.20
2022-11-17T21:56:16.741Z,27.10
2022-11-17T21:58:44.891Z,27.00
2022-11-17T22:01:15.455Z,27.10
2022-11-17T22:03:44.120Z,27.10
2022-11-17T22:06:17.703Z,27.20
2022-11-17T22:08:47.597Z,27.30
2022-11-17T22:11:18.991Z,27.20
2022-11-17T22:13:47.357Z,27.30
2022-11-17T22:16:15.708Z,27.40
2022-11-17T22:18:43.848Z,27.20
2022-11-17T22:21:12.220Z,27.10
2022-11-17T22:23:40.586Z,27.00
2022-11-17T22:26:11.300Z,27.00
2022-11-17T22:28:39.657Z,27.00
2022-11-17T22:31:09.262Z,27.00
2022-11-17T22:33:37.603Z,27.00
2022-11-17T22:36:06.346Z,27.10
2022-11-17T22:38:34.517Z,27.00
2022-11-17T22:41:07.770Z,26.90
2022-11-17T22:43:36.971Z,26.90
2022-11-17T22:46:11.013Z,26.80
2022-11-17T22:48:39.499Z,26.70
2022-11-17T22:51:07.932Z,26.80
2022-11-17T22:53:36.523Z,26.80
2022-11-17T22:56:07.231Z,26.80
2022-11-17T22:58:35.566Z,26.80
2022-11-17T23:01:08.267Z,26.80
2022-11-17T23:03:36.551Z,26.80
2022-11-17T23:06:06.224Z,26.90
2022-11-17T23:08:34.612Z,26.90
2022-11-17T23:11:34.992Z,26.80
2022-11-17T23:13:53.231Z,26.90
2022-11-17T23:16:21.444Z,27.00
2022-11-17T23:18:53.552Z,27.00
2022-11-17T23:21:22.648Z,26.80
2022-11-17T23:23:51.069Z,26.80
2022-11-17T23:26:19.513Z,26.80
2022-11-17T23:28:47.690Z,26.80
2022-11-17T23:31:17.280Z,26.70
2022-11-17T23:33:47.611Z,26.70
2022-11-17T23:36:18.140Z,26.80
2022-11-17T23:38:46.919Z,26.70
2022-11-17T23:41:17.674Z,26.60
2022-11-17T23:43:46.321Z,26.60
2022-11-17T23:46:18.534Z,26.60
2022-11-17T23:48:47.063Z,26.70
2022-11-17T23:51:17.854Z,26.70
2022-11-17T23:53:46.693Z,26.60
2022-11-17T23:56:14.840Z,26.50
2022-11-17T23:58:43.609Z,26.60
